createdAt,value
2023-02-11T00:00:06.758Z,838.3
2023-02-11T00:01:50.459Z,836
2023-02-11T00:03:34.181Z,834.2
2023-02-11T00:05:17.864Z,829.9
2023-02-11T00:07:01.570Z,826.8
2023-02-11T00:08:45.266Z,822.7
2023-02-11T00:10:28.970Z,817.8
2023-02-11T00:12:12.662Z,810.7
2023-02-11T00:13:56.385Z,809.2
2023-02-11T00:15:40.080Z,806.1
2023-02-11T00:17:23.777Z,800.2
2023-02-11T00:19:07.477Z,796.3
2023-02-11T00:20:51.172Z,791.8
2023-02-11T00:22:34.896Z,785.8
2023-02-11T00:24:18.587Z,780.5
2023-02-11T00:26:02.278Z,775.7
2023-02-11T00:27:45.994Z,773.1
2023-02-11T00:29:29.691Z,774.3
2023-02-11T00:31:13.386Z,774.7
2023-02-11T00:32:57.087Z,771.2
2023-02-11T00:34:40.797Z,766.8
2023-02-11T00:36:24.530Z,764.2
2023-02-11T00:38:08.196Z,760.1
2023-02-11T00:39:51.895Z,755.5
2023-02-11T00:41:35.600Z,752.3
2023-02-11T00:43:19.289Z,751.6
2023-02-11T00:45:02.999Z,749.4
2023-02-11T00:46:46.707Z,745.8
2023-02-11T00:48:30.392Z,743.9
2023-02-11T00:50:14.106Z,741.6
2023-02-11T00:51:57.848Z,738.5
2023-02-11T00:53:41.527Z,735.5
2023-02-11T00:55:25.192Z,738.1
2023-02-11T00:57:12.064Z,736.3
2023-02-11T00:58:52.971Z,732.8
2023-02-11T01:00:36.327Z,731.4
2023-02-11T01:02:20.013Z,730.1
2023-02-11T01:04:03.820Z,726.9
2023-02-11T01:05:47.429Z,727.4
2023-02-11T01:07:31.108Z,725
2023-02-11T01:09:14.835Z,718.7
2023-02-11T01:10:58.528Z,709.7
2023-02-11T01:14:25.915Z,703.7
2023-02-11T01:16:09.632Z,701.4
2023-02-11T01:17:53.331Z,699.6
2023-02-11T01:19:37.028Z,698.3
2023-02-11T01:21:20.736Z,696.3
2023-02-11T01:23:04.466Z,695.2
2023-02-11T01:24:48.146Z,692.1
2023-02-11T01:26:31.835Z,688.4
2023-02-11T01:28:15.543Z,686.5
2023-02-11T01:29:59.252Z,684.6
2023-02-11T01:31:42.940Z,685.7
2023-02-11T01:33:26.741Z,682.2
2023-02-11T01:35:10.350Z,679.9
2023-02-11T01:36:54.039Z,679.5
2023-02-11T01:38:37.755Z,676.5
2023-02-11T01:40:21.451Z,670.7
2023-02-11T01:42:05.165Z,672.2
2023-02-11T01:43:48.855Z,671.5
2023-02-11T01:45:32.556Z,669.2
2023-02-11T01:50:43.666Z,666.8
2023-02-11T01:52:27.456Z,664.9
2023-02-11T01:54:11.119Z,662.6
2023-02-11T01:55:54.786Z,660.2
2023-02-11T01:57:38.462Z,660.5
2023-02-11T01:59:22.160Z,659.7
2023-02-11T02:01:05.865Z,656.4
2023-02-11T02:02:49.570Z,656.3
2023-02-11T02:04:33.269Z,653.1
2023-02-11T02:06:16.985Z,651.4
2023-02-11T02:08:00.684Z,650.6
2023-02-11T02:09:44.380Z,646.5
2023-02-11T02:11:28.064Z,644.8
2023-02-11T02:13:11.763Z,644.4
2023-02-11T02:14:55.478Z,641.7
2023-02-11T02:16:39.196Z,638.2
2023-02-11T02:18:22.871Z,636.9
2023-02-11T02:20:06.567Z,636.6
2023-02-11T02:21:50.272Z,635.3
2023-02-11T02:23:33.999Z,636
2023-02-11T02:25:17.681Z,635.1
2023-02-11T02:27:01.401Z,635.2
2023-02-11T02:30:28.780Z,630.1
2023-02-11T02:32:12.481Z,629.8
2023-02-11T02:33:56.184Z,626.3
2023-02-11T02:35:39.896Z,623.8
2023-02-11T02:37:23.573Z,621.7
2023-02-11T02:39:07.282Z,619.7
2023-02-11T02:40:50.969Z,620.5
2023-02-11T02:42:34.680Z,619.4
2023-02-11T02:44:18.394Z,617.6
2023-02-11T02:46:02.096Z,617.5
2023-02-11T02:47:45.786Z,614.9
2023-02-11T02:49:29.500Z,611.2
2023-02-11T02:51:13.194Z,609.5
2023-02-11T02:52:56.905Z,610
2023-02-11T02:54:40.604Z,611.3
2023-02-11T02:56:24.294Z,609.7
2023-02-11T02:58:07.995Z,609.3
2023-02-11T02:59:51.721Z,608.1
2023-02-11T03:01:35.406Z,604.5
2023-02-11T03:03:19.094Z,602.3
2023-02-11T03:05:02.831Z,599.9
2023-02-11T03:06:46.521Z,594.8
2023-02-11T03:08:30.213Z,592.9
2023-02-11T03:10:13.946Z,594.3
2023-02-11T03:11:57.615Z,595.8
2023-02-11T03:13:41.301Z,597
2023-02-11T03:15:25.017Z,594.2
2023-02-11T03:17:08.714Z,593.4
2023-02-11T03:18:52.411Z,592.1
2023-02-11T03:20:36.115Z,593.6
2023-02-11T03:22:19.822Z,592.3
2023-02-11T03:24:03.529Z,586.9
2023-02-11T03:25:47.225Z,583
2023-02-11T03:27:30.924Z,580.7
2023-02-11T03:29:14.628Z,583.1
2023-02-11T03:30:58.421Z,584.6
2023-02-11T03:32:42.029Z,585.9
2023-02-11T03:34:25.719Z,585.3
2023-02-11T03:36:09.422Z,581.4
2023-02-11T03:37:53.138Z,578.7
2023-02-11T03:39:36.835Z,575.8
2023-02-11T03:41:20.530Z,574.4
2023-02-11T03:43:04.278Z,575.3
2023-02-11T03:44:47.934Z,576.4
2023-02-11T03:46:31.651Z,576
2023-02-11T03:48:15.331Z,576.8
2023-02-11T03:49:59.046Z,578.2
2023-02-11T03:51:42.746Z,577.2
2023-02-11T03:53:26.452Z,578.4
2023-02-11T03:55:10.167Z,580.9
2023-02-11T03:56:53.858Z,582.9
2023-02-11T03:58:37.565Z,582.3
2023-02-11T04:00:21.255Z,582.3
2023-02-11T04:02:04.961Z,583.8
2023-02-11T04:03:48.657Z,582.2
2023-02-11T04:05:32.349Z,580
2023-02-11T04:07:16.069Z,580.8
2023-02-11T04:08:59.782Z,581.7
2023-02-11T04:10:43.445Z,581.1
2023-02-11T04:12:27.155Z,580.2
2023-02-11T04:14:10.855Z,581.5
2023-02-11T04:15:54.576Z,584.5
2023-02-11T04:17:38.292Z,583.5
2023-02-11T04:19:21.985Z,582.5
2023-02-11T04:21:05.762Z,581
2023-02-11T04:22:49.392Z,578.1
2023-02-11T04:24:33.079Z,576.4
2023-02-11T04:26:16.759Z,575.1
2023-02-11T04:28:00.483Z,573.9
2023-02-11T04:29:44.196Z,572.1
2023-02-11T04:31:27.876Z,572.6
2023-02-11T04:33:11.556Z,571.6
2023-02-11T04:34:55.272Z,569.1
2023-02-11T04:36:38.974Z,567.1
2023-02-11T04:38:22.686Z,562.4
2023-02-11T04:40:06.383Z,558.4
2023-02-11T04:41:50.082Z,558.9
2023-02-11T04:43:33.785Z,559.8
2023-02-11T04:45:17.492Z,557.1
2023-02-11T04:47:01.195Z,557.6
2023-02-11T04:48:44.877Z,557.5
2023-02-11T04:50:28.587Z,559.5
2023-02-11T04:52:12.397Z,560.4
2023-02-11T04:53:55.994Z,559.5
2023-02-11T04:55:39.688Z,557.5
2023-02-11T04:57:23.399Z,554.6
2023-02-11T04:59:07.091Z,553.5
2023-02-11T05:00:50.804Z,552.7
2023-02-11T05:02:34.519Z,552.4
2023-02-11T05:04:18.197Z,552.7
2023-02-11T05:06:01.914Z,553.4
2023-02-11T05:07:45.609Z,555.7
2023-02-11T05:09:29.326Z,554.5
2023-02-11T05:11:12.999Z,553.5
2023-02-11T05:12:56.711Z,554.6
2023-02-11T05:14:40.425Z,553.5
2023-02-11T05:16:24.121Z,551.4
2023-02-11T05:18:07.809Z,547.2
2023-02-11T05:19:51.512Z,549.1
2023-02-11T05:21:35.224Z,548
2023-02-11T05:23:18.930Z,548.3
2023-02-11T05:25:02.627Z,547.7
2023-02-11T05:26:46.363Z,545.2
2023-02-11T05:28:30.022Z,544.3
2023-02-11T05:30:13.724Z,544
2023-02-11T05:31:57.418Z,544.7
2023-02-11T05:33:41.126Z,545.4
2023-02-11T05:35:24.963Z,546
2023-02-11T05:37:08.516Z,542.2
2023-02-11T05:38:52.242Z,543.3
2023-02-11T05:40:35.946Z,542
2023-02-11T05:42:19.625Z,539.7
2023-02-11T05:44:03.327Z,539.5
2023-02-11T05:45:47.020Z,539.4
2023-02-11T05:47:30.761Z,540
2023-02-11T05:49:14.420Z,538
2023-02-11T05:50:58.135Z,538.6
2023-02-11T05:52:41.821Z,537.8
2023-02-11T05:54:25.550Z,538.3
2023-02-11T05:56:09.253Z,537.1
2023-02-11T05:57:52.940Z,538.5
2023-02-11T05:59:36.631Z,539.4
2023-02-11T06:01:20.341Z,540.4
2023-02-11T06:03:04.052Z,540.5
2023-02-11T06:04:47.749Z,541.9
2023-02-11T06:06:31.443Z,539.9
2023-02-11T06:08:15.153Z,538.4
2023-02-11T06:09:58.840Z,540.1
2023-02-11T06:11:42.550Z,541.8
2023-02-11T06:13:26.291Z,541.6
2023-02-11T06:15:09.969Z,538.8
2023-02-11T06:16:53.653Z,538.9
2023-02-11T06:18:37.446Z,540.4
2023-02-11T06:20:21.182Z,543.6
2023-02-11T06:22:04.766Z,544.8
2023-02-11T06:23:48.462Z,545.9
2023-02-11T06:25:32.232Z,547.7
2023-02-11T06:27:15.863Z,547.8
2023-02-11T06:28:59.608Z,547.9
2023-02-11T06:30:43.265Z,548.8
2023-02-11T06:32:26.975Z,547.3
2023-02-11T06:35:54.422Z,539.4
2023-02-11T06:37:38.070Z,544.2
2023-02-11T06:39:21.787Z,545.1
2023-02-11T06:41:05.507Z,543.6
2023-02-11T06:42:49.183Z,543.2
2023-02-11T06:44:32.875Z,544.6
2023-02-11T06:46:16.592Z,543.7
2023-02-11T06:48:00.311Z,543.9
2023-02-11T06:49:44.028Z,544.4
2023-02-11T06:51:27.699Z,545
2023-02-11T06:53:11.413Z,545.5
2023-02-11T06:54:55.094Z,547.2
2023-02-11T06:56:38.804Z,547.6
2023-02-11T06:58:22.503Z,548.6
2023-02-11T07:00:06.225Z,549.1
2023-02-11T07:01:49.906Z,546.9
2023-02-11T07:03:33.626Z,545.9
2023-02-11T07:05:17.288Z,547
2023-02-11T07:07:01.033Z,546.6
2023-02-11T07:08:44.780Z,545.5
2023-02-11T07:10:28.392Z,545
2023-02-11T07:12:12.117Z,546.5
2023-02-11T07:13:55.823Z,546.2
2023-02-11T07:15:39.507Z,546
2023-02-11T07:17:23.227Z,546.4
2023-02-11T07:19:06.936Z,545.8
2023-02-11T07:20:50.615Z,544.5
2023-02-11T07:22:34.367Z,542
2023-02-11T07:24:18.025Z,543.7
2023-02-11T07:26:01.753Z,544.7
2023-02-11T07:27:45.417Z,544.9
2023-02-11T07:29:29.124Z,546.9
2023-02-11T07:31:12.826Z,544.9
2023-02-11T07:32:56.538Z,544.5
2023-02-11T07:34:40.234Z,542.9
2023-02-11T07:36:23.951Z,539.8
2023-02-11T07:38:07.634Z,539.4
2023-02-11T07:39:51.370Z,540.9
2023-02-11T07:43:18.846Z,536.7
2023-02-11T07:45:02.438Z,537.4
2023-02-11T07:46:46.150Z,542.5
2023-02-11T07:48:29.887Z,544.4
2023-02-11T07:50:13.546Z,543
2023-02-11T07:51:57.241Z,543.4
2023-02-11T07:53:40.974Z,548.3
2023-02-11T07:55:24.664Z,554.9
2023-02-11T07:57:08.344Z,553.6
2023-02-11T07:58:52.067Z,554.3
2023-02-11T08:00:35.752Z,555.6
2023-02-11T08:02:19.472Z,559.9
2023-02-11T08:04:03.297Z,586.1
2023-02-11T08:05:46.864Z,653.5
2023-02-11T08:07:30.600Z,638.5
2023-02-11T08:09:14.309Z,631.9
2023-02-11T08:10:57.982Z,636.7
2023-02-11T08:12:41.684Z,631.2
2023-02-11T08:14:25.404Z,620.2
2023-02-11T08:17:52.783Z,608.4
2023-02-11T08:19:36.485Z,604.9
2023-02-11T08:21:20.197Z,603.3
2023-02-11T08:23:03.887Z,609
2023-02-11T08:24:47.648Z,643.7
2023-02-11T08:26:31.270Z,676.3
2023-02-11T08:28:14.988Z,658.3
2023-02-11T08:29:58.702Z,644
2023-02-11T08:31:42.400Z,641.7
2023-02-11T08:33:26.104Z,641
2023-02-11T08:35:09.805Z,645.1
2023-02-11T08:36:53.499Z,646.1
2023-02-11T08:38:37.210Z,651.4
2023-02-11T08:40:20.910Z,653.2
2023-02-11T08:42:04.597Z,654.2
2023-02-11T08:43:48.301Z,659.1
2023-02-11T08:45:32.053Z,664.4
2023-02-11T08:47:15.812Z,665
2023-02-11T08:48:59.399Z,669.1
2023-02-11T08:50:43.132Z,675
2023-02-11T08:52:26.869Z,678.3
2023-02-11T08:54:10.519Z,681.6
2023-02-11T08:55:54.220Z,682.7
2023-02-11T08:57:37.927Z,705.5
2023-02-11T08:59:21.621Z,745.5
2023-02-11T09:01:05.323Z,744.9
2023-02-11T09:02:49.029Z,755.2
2023-02-11T09:04:32.746Z,791.5
2023-02-11T09:06:16.450Z,812.8
2023-02-11T09:08:00.139Z,820.1
2023-02-11T09:09:43.909Z,826.6
2023-02-11T09:11:27.594Z,835.6
2023-02-11T09:13:11.246Z,839.1
2023-02-11T09:14:54.950Z,844.2
2023-02-11T09:16:38.659Z,844.9
2023-02-11T09:18:22.363Z,842
2023-02-11T09:20:06.034Z,839.5
2023-02-11T09:21:49.747Z,838
2023-02-11T09:23:33.445Z,841
2023-02-11T09:25:17.144Z,842.3
2023-02-11T09:27:00.898Z,841.6
2023-02-11T09:28:44.557Z,839.4
2023-02-11T09:30:28.249Z,831.9
2023-02-11T09:32:11.945Z,828.7
2023-02-11T09:33:55.681Z,833.6
2023-02-11T09:35:39.364Z,837.5
2023-02-11T09:37:23.070Z,842
2023-02-11T09:39:06.764Z,844.9
2023-02-11T09:40:50.445Z,847.2
2023-02-11T09:42:34.151Z,845
2023-02-11T09:44:17.865Z,840.3
2023-02-11T09:46:01.579Z,844.8
2023-02-11T09:47:45.280Z,847.5
2023-02-11T09:49:28.984Z,851.6
2023-02-11T09:51:12.674Z,853.8
2023-02-11T09:52:56.381Z,854.2
2023-02-11T09:54:40.086Z,853.1
2023-02-11T09:56:23.786Z,853.5
2023-02-11T09:58:07.483Z,855
2023-02-11T09:59:51.196Z,860.6
2023-02-11T10:01:34.889Z,869.3
2023-02-11T10:03:18.596Z,874.5
2023-02-11T10:05:02.300Z,878.7
2023-02-11T10:06:46.020Z,881.9
2023-02-11T10:08:29.706Z,886.2
2023-02-11T10:10:13.433Z,893.5
2023-02-11T10:11:57.159Z,898.4
2023-02-11T10:13:40.839Z,894.3
2023-02-11T10:15:24.544Z,887.5
2023-02-11T10:17:08.211Z,881.9
2023-02-11T10:18:51.917Z,882.5
2023-02-11T10:20:35.617Z,880.8
2023-02-11T10:22:19.302Z,879
2023-02-11T10:24:03.013Z,872.8
2023-02-11T10:25:46.725Z,864.2
2023-02-11T10:27:30.474Z,859.5
2023-02-11T10:29:14.112Z,852
2023-02-11T10:30:57.815Z,846.9
2023-02-11T10:32:41.579Z,837.3
2023-02-11T10:34:25.256Z,832.4
2023-02-11T10:36:08.924Z,831.1
2023-02-11T10:37:52.654Z,827.3
2023-02-11T10:39:36.341Z,827.5
2023-02-11T10:41:20.056Z,832.9
2023-02-11T10:43:03.741Z,836.7
2023-02-11T10:44:47.444Z,838.5
2023-02-11T10:46:31.182Z,836.6
2023-02-11T10:48:14.855Z,833.3
2023-02-11T10:49:58.559Z,835.2
2023-02-11T10:51:44.148Z,840.7
2023-02-11T10:53:25.942Z,846.1
2023-02-11T10:55:09.659Z,848.4
2023-02-11T10:56:53.342Z,849.7
2023-02-11T10:58:37.055Z,850.6
2023-02-11T11:00:20.753Z,850.6
2023-02-11T11:02:04.468Z,845.3
2023-02-11T11:03:48.216Z,845.9
2023-02-11T11:05:31.969Z,847.2
2023-02-11T11:07:15.740Z,847.8
2023-02-11T11:08:59.263Z,848.1
2023-02-11T11:10:43.123Z,848
2023-02-11T11:12:26.925Z,848.6
2023-02-11T11:14:10.554Z,849.4
2023-02-11T11:15:54.216Z,848.3
2023-02-11T11:17:38.232Z,848.4
2023-02-11T11:19:21.722Z,848.7
2023-02-11T11:21:05.200Z,845.9
2023-02-11T11:22:49.026Z,846.4
2023-02-11T11:24:32.583Z,845.9
2023-02-11T11:26:16.469Z,845.6
2023-02-11T11:27:59.977Z,841.2
2023-02-11T11:29:43.719Z,840.7
2023-02-11T11:31:27.463Z,842.4
2023-02-11T11:33:11.096Z,846.2
2023-02-11T11:34:54.831Z,850.1
2023-02-11T11:36:38.488Z,858.6
2023-02-11T11:38:22.189Z,865.9
2023-02-11T11:40:05.886Z,868.2
2023-02-11T11:41:49.588Z,863.3
2023-02-11T11:43:33.300Z,865.7
2023-02-11T11:45:16.991Z,872
2023-02-11T11:47:00.698Z,872.4
2023-02-11T11:48:44.408Z,872.8
2023-02-11T11:50:28.154Z,873.6
2023-02-11T11:52:11.808Z,878.4
2023-02-11T11:53:55.519Z,879.9
2023-02-11T11:55:39.228Z,880.4
2023-02-11T11:57:23.101Z,877.7
2023-02-11T11:59:06.619Z,876
2023-02-11T12:00:50.323Z,872.9
2023-02-11T12:02:34.031Z,867.4
2023-02-11T12:04:17.711Z,863.2
2023-02-11T12:06:01.420Z,858.3
2023-02-11T12:07:45.118Z,859.1
2023-02-11T12:09:28.830Z,860.7
2023-02-11T12:11:12.527Z,865.1
2023-02-11T12:12:56.217Z,869
2023-02-11T12:14:39.930Z,873.1
2023-02-11T12:16:23.637Z,876.9
2023-02-11T12:18:07.340Z,879.6
2023-02-11T12:19:51.012Z,881.1
2023-02-11T12:21:34.782Z,878.4
2023-02-11T12:23:18.432Z,876.7
2023-02-11T12:25:02.158Z,879.2
2023-02-11T12:26:45.846Z,881.2
2023-02-11T12:28:29.539Z,880.8
2023-02-11T12:30:13.272Z,881.8
2023-02-11T12:31:56.951Z,878.4
2023-02-11T12:33:40.656Z,873.5
2023-02-11T12:35:24.361Z,876.9
2023-02-11T12:37:08.068Z,880
2023-02-11T12:38:51.764Z,880.4
2023-02-11T12:40:35.477Z,882.8
2023-02-11T12:42:19.175Z,888
2023-02-11T12:44:02.914Z,887.4
2023-02-11T12:45:46.598Z,889.9
2023-02-11T12:47:30.296Z,889.6
2023-02-11T12:49:14.044Z,889.6
2023-02-11T12:50:57.706Z,897.6
2023-02-11T12:52:41.396Z,913.2
2023-02-11T12:54:25.108Z,921.7
2023-02-11T12:56:08.819Z,928.4
2023-02-11T12:57:52.503Z,925.1
2023-02-11T12:59:36.196Z,926.1
2023-02-11T13:01:19.916Z,938
2023-02-11T13:03:03.627Z,945.1
2023-02-11T13:04:47.333Z,958.3
2023-02-11T13:06:31.021Z,979.7
2023-02-11T13:08:14.717Z,987.3
2023-02-11T13:09:58.439Z,984.1
2023-02-11T13:11:42.151Z,989
2023-02-11T13:13:25.848Z,998.4
2023-02-11T13:15:09.567Z,1001
2023-02-11T13:16:53.240Z,1009.5
2023-02-11T13:18:36.968Z,1017.2
2023-02-11T13:20:20.657Z,1019.8
2023-02-11T13:22:04.338Z,1020.4
2023-02-11T13:23:48.041Z,1017.2
2023-02-11T13:25:31.745Z,1014.9
2023-02-11T13:27:15.453Z,1013.7
2023-02-11T13:28:59.154Z,1015.2
2023-02-11T13:30:42.878Z,1015.6
2023-02-11T13:32:26.549Z,1014.8
2023-02-11T13:34:10.280Z,1012.4
2023-02-11T13:35:53.991Z,1014.4
2023-02-11T13:37:37.662Z,1015.2
2023-02-11T13:39:21.342Z,1014.1
2023-02-11T13:41:05.063Z,1012.5
2023-02-11T13:42:48.856Z,1012.3
2023-02-11T13:44:32.507Z,1015
2023-02-11T13:46:16.170Z,1017.2
2023-02-11T13:47:59.972Z,1019.7
2023-02-11T13:49:43.670Z,1019.7
2023-02-11T13:51:27.261Z,1018.9
2023-02-11T13:53:10.975Z,1017.9
2023-02-11T13:54:54.733Z,1022.7
2023-02-11T13:56:38.397Z,1025.7
2023-02-11T13:58:22.061Z,1036.7
2023-02-11T14:00:05.855Z,1061.8
2023-02-11T14:01:49.488Z,1094.8
2023-02-11T14:03:33.222Z,1114
2023-02-11T14:05:16.917Z,1103.9
2023-02-11T14:07:00.587Z,1100.7
2023-02-11T14:08:44.315Z,1103.3
2023-02-11T14:10:27.974Z,1102
2023-02-11T14:12:11.686Z,1100.5
2023-02-11T14:13:55.442Z,1103.6
2023-02-11T14:15:39.095Z,1107.3
2023-02-11T14:17:22.815Z,1110.9
2023-02-11T14:19:06.581Z,1114.8
2023-02-11T14:20:50.204Z,1121.3
2023-02-11T14:22:33.960Z,1125.1
2023-02-11T14:24:17.616Z,1129.5
2023-02-11T14:26:01.316Z,1135
2023-02-11T14:27:45.024Z,1137.7
2023-02-11T14:29:28.725Z,1140.8
2023-02-11T14:31:12.425Z,1140.4
2023-02-11T14:32:56.115Z,1141
2023-02-11T14:34:39.816Z,1140.2
2023-02-11T14:36:23.572Z,1138.7
2023-02-11T14:38:07.239Z,1136.6
2023-02-11T14:39:50.937Z,1125.9
2023-02-11T14:41:34.617Z,1109
2023-02-11T14:43:18.315Z,1098
2023-02-11T14:45:02.032Z,1089.6
2023-02-11T14:46:45.737Z,1085.1
2023-02-11T14:48:29.411Z,1076.5
2023-02-11T14:50:13.115Z,1074.9
2023-02-11T14:51:56.901Z,1068.1
2023-02-11T14:53:40.528Z,1063.7
2023-02-11T14:55:24.239Z,1056.8
2023-02-11T14:57:07.930Z,1052
2023-02-11T14:58:51.633Z,1046.2
2023-02-11T15:00:35.360Z,1040.3
2023-02-11T15:02:19.050Z,1033.6
2023-02-11T15:04:02.753Z,1028.5
2023-02-11T15:05:46.530Z,1023.6
2023-02-11T15:07:30.150Z,1018.9
2023-02-11T15:09:13.851Z,1018.3
2023-02-11T15:10:57.552Z,1014.3
2023-02-11T15:12:41.254Z,1008.9
2023-02-11T15:14:24.963Z,1002.6
2023-02-11T15:16:08.650Z,998.1
2023-02-11T15:17:52.350Z,991.1
2023-02-11T15:19:36.052Z,980.1
2023-02-11T15:21:19.767Z,974.4
2023-02-11T15:23:03.449Z,969.5
2023-02-11T15:24:47.150Z,965.7
2023-02-11T15:26:31.173Z,960
2023-02-11T15:28:14.568Z,959.6
2023-02-11T15:29:58.256Z,958.2
2023-02-11T15:31:41.965Z,957.9
2023-02-11T15:33:25.657Z,958.7
2023-02-11T15:35:09.376Z,951.6
2023-02-11T15:36:53.067Z,949.6
2023-02-11T15:38:36.777Z,946.9
2023-02-11T15:40:20.479Z,936.1
2023-02-11T15:42:04.186Z,928.4
2023-02-11T15:43:47.882Z,922.4
2023-02-11T15:45:31.597Z,921.7
2023-02-11T15:47:15.283Z,919.4
2023-02-11T15:48:58.981Z,914.3
2023-02-11T15:50:42.703Z,909.5
2023-02-11T15:52:26.410Z,902.4
2023-02-11T15:54:10.183Z,899.6
2023-02-11T15:55:53.788Z,896.8
2023-02-11T15:57:37.501Z,893.2
2023-02-11T15:59:21.213Z,885.5
2023-02-11T16:01:04.895Z,875.3
2023-02-11T16:02:48.603Z,874.1
2023-02-11T16:04:32.301Z,871.5
2023-02-11T16:06:16.013Z,870.1
2023-02-11T16:07:59.760Z,875.6
2023-02-11T16:09:43.412Z,883.6
2023-02-11T16:11:27.101Z,880.6
2023-02-11T16:13:10.820Z,884.3
2023-02-11T16:14:54.519Z,893.9
2023-02-11T16:16:38.214Z,907.9
2023-02-11T16:18:21.921Z,911
2023-02-11T16:20:05.598Z,907.2
2023-02-11T16:21:49.305Z,912.2
2023-02-11T16:23:33.000Z,918.2
2023-02-11T16:25:16.824Z,922.9
2023-02-11T16:27:00.420Z,924
2023-02-11T16:28:44.123Z,925.5
2023-02-11T16:30:27.827Z,929.6
2023-02-11T16:32:11.541Z,933.1
2023-02-11T16:33:55.218Z,938.8
2023-02-11T16:35:38.935Z,945.5
2023-02-11T16:37:22.643Z,950
2023-02-11T16:39:06.346Z,953.2
2023-02-11T16:40:50.059Z,954.3
2023-02-11T16:42:33.806Z,959.5
2023-02-11T16:44:17.468Z,960.6
2023-02-11T16:46:01.156Z,959.3
2023-02-11T16:47:44.855Z,964.6
2023-02-11T16:49:28.541Z,967.3
2023-02-11T16:51:12.247Z,965.1
2023-02-11T16:52:55.953Z,966.8
2023-02-11T16:54:39.661Z,971.4
2023-02-11T16:56:23.353Z,976.6
2023-02-11T16:58:07.056Z,977.6
2023-02-11T16:59:50.749Z,975.7
2023-02-11T17:01:34.448Z,972.3
2023-02-11T17:03:18.166Z,976.7
2023-02-11T17:05:01.865Z,981.6
2023-02-11T17:06:45.549Z,987.3
2023-02-11T17:08:29.332Z,989.1
2023-02-11T17:10:12.963Z,988.4
2023-02-11T17:11:56.661Z,989.9
2023-02-11T17:13:40.398Z,988.8
2023-02-11T17:15:24.076Z,991.3
2023-02-11T17:17:07.767Z,992.9
2023-02-11T17:18:51.464Z,993.2
2023-02-11T17:20:35.242Z,993.6
2023-02-11T17:22:18.880Z,992.7
2023-02-11T17:24:02.570Z,995.4
2023-02-11T17:25:46.273Z,999.9
2023-02-11T17:27:29.966Z,992.5
2023-02-11T17:29:13.677Z,982.2
2023-02-11T17:30:57.374Z,972.9
2023-02-11T17:32:41.087Z,969.6
2023-02-11T17:34:24.783Z,957.9
2023-02-11T17:36:08.866Z,942.4
2023-02-11T17:37:52.181Z,940.1
2023-02-11T17:39:35.872Z,936.7
2023-02-11T17:41:19.588Z,936
2023-02-11T17:43:03.289Z,939.8
2023-02-11T17:44:47.033Z,939.7
2023-02-11T17:46:30.752Z,943.7
2023-02-11T17:48:14.424Z,943.8
2023-02-11T17:49:58.099Z,941.7
2023-02-11T17:51:41.820Z,946.1
2023-02-11T17:53:25.515Z,949.3
2023-02-11T17:55:09.200Z,951.6
2023-02-11T17:56:52.887Z,952.6
2023-02-11T17:58:36.613Z,953.7
2023-02-11T18:00:20.323Z,954.9
2023-02-11T18:02:04.005Z,955.6
2023-02-11T18:03:47.708Z,957
2023-02-11T18:05:31.454Z,957.8
2023-02-11T18:07:15.121Z,960.9
2023-02-11T18:08:58.891Z,959.1
2023-02-11T18:10:42.519Z,959.4
2023-02-11T18:12:26.231Z,959.8
2023-02-11T18:14:09.925Z,960.4
2023-02-11T18:15:53.618Z,960.9
2023-02-11T18:17:37.341Z,963.7
2023-02-11T18:19:21.067Z,966.7
2023-02-11T18:21:04.734Z,969.1
2023-02-11T18:22:48.462Z,969
2023-02-11T18:24:32.229Z,971.7
2023-02-11T18:26:15.861Z,976.8
2023-02-11T18:27:59.539Z,978.1
2023-02-11T18:29:43.245Z,974.5
2023-02-11T18:31:26.945Z,975.1
2023-02-11T18:33:10.653Z,977.7
2023-02-11T18:34:54.361Z,981.5
2023-02-11T18:36:38.057Z,984
2023-02-11T18:38:21.767Z,983.5
2023-02-11T18:40:05.450Z,986.2
2023-02-11T18:41:49.153Z,989.4
2023-02-11T18:43:32.860Z,988.7
2023-02-11T18:45:16.626Z,987.5
2023-02-11T18:47:00.255Z,988.4
2023-02-11T18:48:44.000Z,992.3
2023-02-11T18:50:27.665Z,996.5
2023-02-11T18:52:11.378Z,995.1
2023-02-11T18:53:55.087Z,993.5
2023-02-11T18:55:38.763Z,992.2
2023-02-11T18:57:22.475Z,994.8
2023-02-11T18:59:06.189Z,999.4
2023-02-11T19:00:49.889Z,1002.1
2023-02-11T19:02:33.583Z,1007.6
2023-02-11T19:04:17.286Z,1011
2023-02-11T19:06:00.983Z,1011.1
2023-02-11T19:07:56.273Z,1007.7
2023-02-11T19:09:28.379Z,1007.6
2023-02-11T19:11:12.095Z,1006.2
2023-02-11T19:12:55.788Z,1009.5
2023-02-11T19:14:39.503Z,1011.2
2023-02-11T19:16:23.179Z,1014.8
2023-02-11T19:18:06.902Z,1021.8
2023-02-11T19:19:50.604Z,1030.2
2023-02-11T19:21:34.321Z,1034.4
2023-02-11T19:23:18.064Z,1042.9
2023-02-11T19:25:01.696Z,1047.2
2023-02-11T19:26:45.399Z,1054.8
2023-02-11T19:28:29.109Z,1058.5
2023-02-11T19:30:12.803Z,1062.3
2023-02-11T19:31:56.512Z,1065.2
2023-02-11T19:33:40.197Z,1060.6
2023-02-11T19:35:23.913Z,1056.6
2023-02-11T19:37:07.629Z,1052.4
2023-02-11T19:38:51.354Z,1052.7
2023-02-11T19:40:35.032Z,1043.6
2023-02-11T19:42:18.787Z,1039.2
2023-02-11T19:44:02.446Z,1038.3
2023-02-11T19:45:46.120Z,1040.8
2023-02-11T19:47:29.887Z,1038.7
2023-02-11T19:49:13.525Z,1030.7
2023-02-11T19:50:57.265Z,1033.3
2023-02-11T19:52:41.020Z,1030.5
2023-02-11T19:54:24.610Z,1032.4
2023-02-11T19:56:08.337Z,1034.6
2023-02-11T19:57:52.041Z,1035.3
2023-02-11T19:59:35.714Z,1034.1
2023-02-11T20:01:19.438Z,1030.9
2023-02-11T20:03:03.148Z,1030.5
2023-02-11T20:04:46.826Z,1031.3
2023-02-11T20:06:30.546Z,1034.4
2023-02-11T20:08:14.243Z,1033
2023-02-11T20:09:57.949Z,1034.5
2023-02-11T20:11:41.655Z,1040.3
2023-02-11T20:13:25.358Z,1041
2023-02-11T20:15:09.048Z,1043.7
2023-02-11T20:16:52.758Z,1044.6
2023-02-11T20:18:36.438Z,1047.4
2023-02-11T20:20:20.225Z,1050.6
2023-02-11T20:22:03.850Z,1051.9
2023-02-11T20:23:47.555Z,1053.9
2023-02-11T20:25:31.263Z,1051.2
2023-02-11T20:27:14.960Z,1047.9
2023-02-11T20:28:58.690Z,1045.2
2023-02-11T20:30:42.353Z,1052.3
2023-02-11T20:32:26.058Z,1051.2
2023-02-11T20:34:09.774Z,1049.7
2023-02-11T20:35:53.460Z,1046.2
2023-02-11T20:37:37.210Z,1048.2
2023-02-11T20:39:20.980Z,1056.6
2023-02-11T20:41:04.561Z,1064.4
2023-02-11T20:42:48.291Z,1072.5
2023-02-11T20:44:32.021Z,1074.6
2023-02-11T20:46:15.683Z,1078.9
2023-02-11T20:47:59.473Z,1078.1
2023-02-11T20:49:43.084Z,1075.4
2023-02-11T20:51:26.787Z,1073.8
2023-02-11T20:53:10.487Z,1072.4
2023-02-11T20:54:54.206Z,1066.5
2023-02-11T20:56:37.933Z,1062.7
2023-02-11T20:58:21.588Z,1061.6
2023-02-11T21:00:05.304Z,1064.3
2023-02-11T21:01:48.990Z,1065.7
2023-02-11T21:03:32.700Z,1070.7
2023-02-11T21:05:16.465Z,1073.8
2023-02-11T21:07:00.127Z,1074.9
2023-02-11T21:08:43.822Z,1085.8
2023-02-11T21:10:27.504Z,1107.2
2023-02-11T21:12:11.255Z,1111.8
2023-02-11T21:13:54.909Z,1101.4
2023-02-11T21:15:38.631Z,1096.1
2023-02-11T21:17:22.326Z,1094.4
2023-02-11T21:19:06.027Z,1094.7
2023-02-11T21:20:49.733Z,1093.5
2023-02-11T21:22:33.456Z,1093.1
2023-02-11T21:24:17.234Z,1092.9
2023-02-11T21:26:00.841Z,1092.7
2023-02-11T21:27:44.521Z,1089.9
2023-02-11T21:29:28.283Z,1089.6
2023-02-11T21:31:11.924Z,1091.7
2023-02-11T21:32:55.657Z,1095.7
2023-02-11T21:34:39.382Z,1096.4
2023-02-11T21:36:23.045Z,1092.2
2023-02-11T21:38:06.723Z,1090
2023-02-11T21:39:50.444Z,1091.7
2023-02-11T21:41:34.214Z,1095
2023-02-11T21:43:17.859Z,1091.9
2023-02-11T21:45:01.530Z,1091.9
2023-02-11T21:46:45.269Z,1089.5
2023-02-11T21:48:28.960Z,1084.7
2023-02-11T21:50:12.667Z,1081.7
2023-02-11T21:51:56.421Z,1075.8
2023-02-11T21:53:40.087Z,1074.3
2023-02-11T21:55:23.767Z,1070.7
2023-02-11T21:57:07.455Z,1067.8
2023-02-11T21:58:51.180Z,1066.2
2023-02-11T22:00:34.876Z,1062.2
2023-02-11T22:02:18.569Z,1059.2
2023-02-11T22:04:02.269Z,1054.7
2023-02-11T22:05:45.965Z,1052.4
2023-02-11T22:07:29.663Z,1052.9
2023-02-11T22:09:13.372Z,1054.1
2023-02-11T22:10:57.072Z,1053.8
2023-02-11T22:12:40.773Z,1055.1
2023-02-11T22:14:24.469Z,1054.3
2023-02-11T22:16:08.184Z,1055.4
2023-02-11T22:17:52.076Z,1056.9
2023-02-11T22:19:35.624Z,1051.3
2023-02-11T22:21:19.281Z,1041.3
2023-02-11T22:23:02.985Z,1030